Time;durP1;ratioP1;P1;durP2;ratioP2;P2;SDS_P1;SDS_P2;PMS_P1;PMS_P2;Temp;Humidity;BMP_temperature;BMP_pressure;BME280_temperature;BME280_humidity;BME280_pressure;Samples;Min_cycle;Max_cycle;Signal;HPM_P1;HPM_P2
2023/05/09 00:00:01;;;;;;;73.28;39.15;;;;;;;13.69;99.96;101708.91;6157886;23;20118;-80
2023/05/09 00:02:28;;;;;;;73.18;40.00;;;;;;;13.66;100.00;101716.84;6133753;23;20005;-80
2023/05/09 00:04:54;;;;;;;68.72;39.25;;;;;;;13.66;100.00;101704.56;6109442;23;20474;-80
2023/05/09 00:07:19;;;;;;;66.90;36.05;;;;;;;13.67;100.00;101700.16;6108222;23;20009;-79
2023/05/09 00:09:45;;;;;;;69.43;37.60;;;;;;;13.63;100.00;101696.69;6109375;23;20040;-79
2023/05/09 00:12:11;;;;;;;71.57;39.33;;;;;;;13.61;100.00;101694.97;6133390;23;20443;-79
2023/05/09 00:14:38;;;;;;;70.22;39.10;;;;;;;13.62;100.00;101692.31;6109194;23;20458;-79
2023/05/09 00:17:03;;;;;;;64.70;38.38;;;;;;;13.61;100.00;101694.97;6133441;23;20005;-79
2023/05/09 00:19:28;;;;;;;62.42;35.50;;;;;;;13.61;100.00;101689.69;6107830;23;20408;-79
2023/05/09 00:21:54;;;;;;;63.08;37.90;;;;;;;13.61;100.00;101695.81;6107149;23;20601;-79
2023/05/09 00:24:19;;;;;;;63.25;36.17;;;;;;;13.64;100.00;101687.03;6109072;23;20084;-79
2023/05/09 00:26:45;;;;;;;59.78;34.70;;;;;;;13.60;100.00;101687.94;6109088;23;20024;-79
2023/05/09 00:29:12;;;;;;;59.90;34.28;;;;;;;13.56;100.00;101680.97;6132085;23;20019;-79
2023/05/09 00:31:38;;;;;;;61.20;34.20;;;;;;;13.52;100.00;101681.00;6157910;23;20008;-79
2023/05/09 00:34:03;;;;;;;56.92;33.03;;;;;;;13.52;100.00;101683.63;6133547;23;20009;-80
2023/05/09 00:36:29;;;;;;;60.25;33.80;;;;;;;13.54;99.94;101677.50;6108092;23;20013;-79
2023/05/09 00:38:56;;;;;;;61.15;33.75;;;;;;;13.52;100.00;101675.75;6108490;23;20012;-79
2023/05/09 00:41:21;;;;;;;58.00;31.95;;;;;;;13.50;100.00;101677.53;6108136;23;20104;-80
2023/05/09 00:43:46;;;;;;;53.78;31.90;;;;;;;13.50;99.85;101661.72;6133827;23;20092;-79
2023/05/09 00:46:12;;;;;;;51.92;31.77;;;;;;;13.49;99.59;101652.06;6108209;23;20095;-80
2023/05/09 00:48:37;;;;;;;45.80;30.48;;;;;;;13.46;99.79;101652.13;6132272;23;20521;-79
2023/05/09 00:51:03;;;;;;;51.28;31.10;;;;;;;13.47;99.56;101658.25;6108053;23;20012;-79
2023/05/09 00:53:29;;;;;;;47.03;29.30;;;;;;;13.48;98.87;101657.38;6132427;23;20127;-79
2023/05/09 00:55:55;;;;;;;49.40;29.80;;;;;;;13.48;99.31;101652.97;6109145;23;20339;-79
2023/05/09 00:58:21;;;;;;;47.25;29.42;;;;;;;13.46;99.40;101638.94;6132472;23;20079;-79
2023/05/09 01:00:46;;;;;;;42.58;27.50;;;;;;;13.45;99.26;101650.38;6108971;23;20435;-79
2023/05/09 01:03:12;;;;;;;47.08;28.42;;;;;;;13.46;99.12;101638.94;6108496;23;20432;-80
2023/05/09 01:06:02;;;;;;;42.33;27.48;;;;;;;13.51;99.13;101649.44;6107962;23;20005;-79
2023/05/09 01:08:27;;;;;;;43.92;26.98;;;;;;;13.52;98.39;101643.28;6156837;23;20005;-80
2023/05/09 01:11:02;;;;;;;42.40;27.20;;;;;;;13.58;98.23;101640.56;6157064;23;20059;-79
2023/05/09 01:13:40;;;;;;;41.00;26.15;;;;;;;13.62;98.14;101630.84;6155253;23;20107;-77
2023/05/09 01:16:20;;;;;;;41.80;27.23;;;;;;;13.61;97.79;101629.13;6156495;23;20443;-77
2023/05/09 01:19:10;;;;;;;44.00;24.88;;;;;;;13.64;97.16;101621.19;6155242;23;20132;-77
2023/05/09 01:21:37;;;;;;;35.40;24.80;;;;;;;13.66;97.10;101611.50;6133962;23;20009;-78
2023/05/09 01:24:15;;;;;;;36.17;24.23;;;;;;;13.72;96.51;101614.06;6132727;23;20032;-77
2023/05/09 01:27:03;;;;;;;37.78;23.60;;;;;;;13.71;96.57;101609.69;6157353;23;20015;-76
2023/05/09 01:29:46;;;;;;;35.15;24.63;;;;;;;13.77;96.24;101606.97;6089971;23;20005;-76
2023/05/09 01:32:24;;;;;;;33.95;25.00;;;;;;;13.78;96.13;101600.81;6157299;23;20012;-76
2023/05/09 01:34:52;;;;;;;35.28;23.40;;;;;;;13.79;95.59;101593.78;6156983;23;20462;-76
2023/05/09 01:37:23;;;;;;;35.47;23.52;;;;;;;13.77;95.62;101591.16;6155645;23;20012;-76
2023/05/09 01:39:52;;;;;;;34.17;22.90;;;;;;;13.79;95.25;101594.66;6157107;23;20486;-76
2023/05/09 01:42:20;;;;;;;34.72;22.98;;;;;;;13.75;95.35;101592.97;6156794;23;20009;-76
2023/05/09 01:44:46;;;;;;;31.73;22.98;;;;;;;13.74;95.42;101593.84;6156040;23;20019;-76
2023/05/09 01:47:15;;;;;;;32.45;23.48;;;;;;;13.68;95.32;101593.94;6155737;23;20005;-76
2023/05/09 01:49:41;;;;;;;37.05;23.42;;;;;;;13.67;95.61;101595.66;6103573;23;20428;-76
2023/05/09 01:52:10;;;;;;;37.92;24.25;;;;;;;13.59;95.66;101588.75;6127602;23;20089;-76
2023/05/09 01:54:37;;;;;;;35.92;22.80;;;;;;;13.51;96.37;101589.72;6104394;23;20037;-76
2023/05/09 01:57:03;;;;;;;37.92;24.77;;;;;;;13.47;96.32;101587.16;6128512;23;20432;-77
2023/05/09 01:59:31;;;;;;;38.63;24.25;;;;;;;13.44;97.22;101585.41;6128444;23;20002;-76
2023/05/09 02:01:57;;;;;;;35.55;23.65;;;;;;;13.39;97.70;101574.09;6102202;23;20009;-77
2023/05/09 02:04:24;;;;;;;39.42;25.08;;;;;;;13.34;98.18;101581.13;6104854;23;20033;-77
2023/05/09 02:06:50;;;;;;;37.65;25.20;;;;;;;13.25;98.40;101575.97;6081267;23;20025;-77
2023/05/09 02:09:20;;;;;;;34.75;23.88;;;;;;;13.23;98.92;101580.38;6130412;23;20325;-77
2023/05/09 02:11:46;;;;;;;35.85;23.38;;;;;;;13.20;98.98;101583.03;6129523;23;20044;-77
2023/05/09 02:14:12;;;;;;;36.50;24.17;;;;;;;13.14;99.08;101582.19;6129201;23;20352;-77
2023/05/09 02:16:38;;;;;;;35.85;23.40;;;;;;;13.09;99.97;101581.41;6129929;23;20001;-77
2023/05/09 02:19:04;;;;;;;37.38;23.98;;;;;;;13.05;100.00;101568.31;6129849;23;20013;-77
2023/05/09 02:21:30;;;;;;;35.80;25.23;;;;;;;13.02;100.00;101563.94;6129709;23;20009;-77
2023/05/09 02:23:56;;;;;;;40.20;25.55;;;;;;;13.02;100.00;101566.56;6128445;23;20017;-77
2023/05/09 02:26:23;;;;;;;38.30;24.02;;;;;;;12.95;100.00;101563.13;6080987;23;20010;-77
2023/05/09 02:28:49;;;;;;;41.42;24.45;;;;;;;12.94;100.00;101565.75;6105081;23;20032;-77
2023/05/09 02:31:19;;;;;;;38.67;25.10;;;;;;;12.91;100.00;101564.03;6082006;23;20009;-77
2023/05/09 02:33:46;;;;;;;41.55;25.52;;;;;;;12.87;100.00;101558.81;6128260;23;19997;-77
2023/05/09 02:36:13;;;;;;;40.90;26.52;;;;;;;12.84;100.00;101559.72;6105239;23;20005;-77
2023/05/09 02:38:40;;;;;;;38.53;24.42;;;;;;;12.86;100.00;101562.31;6129216;23;20020;-77
2023/05/09 02:41:06;;;;;;;38.03;24.90;;;;;;;12.81;100.00;101551.84;6103999;23;20024;-77
2023/05/09 02:43:31;;;;;;;38.50;26.10;;;;;;;12.80;100.00;101558.88;6079834;23;20430;-77
2023/05/09 02:45:56;;;;;;;41.28;26.17;;;;;;;12.81;100.00;101568.53;6081770;23;20010;-77
2023/05/09 02:48:22;;;;;;;39.10;25.60;;;;;;;12.80;100.00;101558.88;6119520;23;20103;-77
2023/05/09 02:50:47;;;;;;;39.13;25.52;;;;;;;12.81;100.00;101563.28;6107825;23;20343;-77
2023/05/09 02:53:13;;;;;;;42.05;25.33;;;;;;;12.81;100.00;101559.75;6107240;23;20005;-77
2023/05/09 02:55:38;;;;;;;40.25;26.52;;;;;;;12.78;100.00;101555.38;6110970;23;20045;-77
2023/05/09 02:58:04;;;;;;;36.30;25.73;;;;;;;12.80;100.00;101555.38;6109652;23;20013;-77
2023/05/09 03:00:29;;;;;;;39.63;25.45;;;;;;;12.76;100.00;101546.66;6133828;23;20044;-77
2023/05/09 03:02:55;;;;;;;39.55;25.90;;;;;;;12.76;100.00;101551.91;6108347;23;20009;-77
2023/05/09 03:05:20;;;;;;;43.22;26.10;;;;;;;12.75;100.00;101547.53;6132366;23;20035;-77
2023/05/09 03:07:46;;;;;;;39.20;26.67;;;;;;;12.73;100.00;101546.69;6157260;23;20092;-77
2023/05/09 03:10:11;;;;;;;42.25;26.67;;;;;;;12.69;100.00;101541.47;6159261;23;20016;-77
2023/05/09 03:12:38;;;;;;;40.22;26.05;;;;;;;12.62;100.00;101536.25;6132718;23;20036;-77
2023/05/09 03:15:05;;;;;;;40.03;27.00;;;;;;;12.59;100.00;101527.53;6132350;23;20428;-77
2023/05/09 03:17:31;;;;;;;41.90;26.40;;;;;;;12.59;100.00;101519.66;6158032;23;20448;-77
2023/05/09 03:19:56;;;;;;;40.42;25.98;;;;;;;12.57;100.00;101527.56;6157032;23;20060;-76
2023/05/09 03:22:22;;;;;;;42.75;26.52;;;;;;;12.54;100.00;101519.69;6157352;23;20096;-77
2023/05/09 03:24:47;;;;;;;42.75;26.85;;;;;;;12.51;100.00;101517.06;6109362;23;20005;-77
2023/05/09 03:27:13;;;;;;;42.65;27.08;;;;;;;12.52;100.00;101518.81;6159090;23;20013;-77
2023/05/09 03:29:38;;;;;;;40.10;26.40;;;;;;;12.52;100.00;101520.59;6133600;23;20009;-77
2023/05/09 03:32:04;;;;;;;50.38;28.20;;;;;;;12.47;100.00;101520.63;6133602;23;20008;-77
2023/05/09 03:34:29;;;;;;;39.42;25.63;;;;;;;12.45;100.00;101530.28;6132079;23;20009;-77
2023/05/09 03:36:55;;;;;;;40.45;25.98;;;;;;;12.45;100.00;101520.63;6157445;23;20092;-77
2023/05/09 03:39:20;;;;;;;42.60;26.95;;;;;;;12.45;100.00;101519.75;6133697;23;20094;-77
2023/05/09 03:41:45;;;;;;;42.33;28.23;;;;;;;12.45;100.00;101518.00;6110235;23;20019;-77
2023/05/09 03:44:11;;;;;;;43.20;27.08;;;;;;;12.45;100.00;101515.38;6109098;23;20055;-77
2023/05/09 03:46:36;;;;;;;46.42;28.83;;;;;;;12.44;100.00;101518.91;6108607;23;20033;-77
2023/05/09 03:49:03;;;;;;;46.65;28.13;;;;;;;12.46;100.00;101506.59;6157915;23;20025;-77
2023/05/09 03:51:29;;;;;;;43.17;28.05;;;;;;;12.45;100.00;101499.59;6108087;23;20423;-76
2023/05/09 03:53:55;;;;;;;45.42;28.23;;;;;;;12.48;100.00;101504.84;6109124;23;20009;-77
2023/05/09 03:56:21;;;;;;;45.33;27.67;;;;;;;12.49;100.00;101503.06;6134530;23;20013;-77
2023/05/09 03:58:47;;;;;;;46.35;27.83;;;;;;;12.50;100.00;101496.94;6158830;23;20339;-77
2023/05/09 04:01:13;;;;;;;44.83;27.90;;;;;;;12.54;100.00;101488.16;6185062;23;20083;-77
2023/05/09 04:03:39;;;;;;;41.45;28.13;;;;;;;12.51;100.00;101492.53;6133157;23;20009;-77
2023/05/09 04:06:05;;;;;;;42.85;27.27;;;;;;;12.51;100.00;101496.03;6133714;23;20009;-77
2023/05/09 04:08:31;;;;;;;43.38;27.58;;;;;;;12.52;100.00;101499.56;6109377;23;20015;-77
2023/05/09 04:10:56;;;;;;;47.03;28.45;;;;;;;12.52;100.00;101489.03;6109895;23;20012;-77
2023/05/09 04:13:22;;;;;;;45.03;27.98;;;;;;;12.53;100.00;101490.75;6109349;23;20005;-77
2023/05/09 04:15:47;;;;;;;41.00;27.55;;;;;;;12.54;100.00;101482.88;6134315;23;20012;-77
2023/05/09 04:18:13;;;;;;;43.22;28.15;;;;;;;12.54;100.00;101487.25;6134064;23;20021;-76
2023/05/09 04:20:38;;;;;;;42.83;26.55;;;;;;;12.54;100.00;101482.88;6108569;23;20008;-76
2023/05/09 04:23:04;;;;;;;42.45;26.98;;;;;;;12.56;100.00;101475.00;6108749;23;20339;-76
2023/05/09 04:25:30;;;;;;;43.35;27.20;;;;;;;12.55;100.00;101473.22;6108313;23;20440;-75
2023/05/09 04:27:56;;;;;;;38.35;25.25;;;;;;;12.54;100.00;101464.50;6133644;23;20088;-77
2023/05/09 04:30:22;;;;;;;35.22;25.23;;;;;;;12.54;100.00;101460.97;6109392;23;20020;-77
2023/05/09 04:32:48;;;;;;;41.97;26.98;;;;;;;12.55;100.00;101458.31;6108354;23;20059;-77
2023/05/09 04:35:13;;;;;;;35.78;24.73;;;;;;;12.58;100.00;101465.31;6132807;23;20009;-77
2023/05/09 04:37:39;;;;;;;37.47;25.25;;;;;;;12.59;100.00;101474.94;6132682;23;20013;-76
2023/05/09 04:40:07;;;;;;;35.70;24.27;;;;;;;12.61;100.00;101468.78;6108210;23;20399;-77
2023/05/09 04:42:32;;;;;;;35.92;24.42;;;;;;;12.63;100.00;101476.66;6133833;23;20063;-77
2023/05/09 04:44:58;;;;;;;35.42;24.48;;;;;;;12.65;100.00;101469.63;6157585;23;20013;-77
2023/05/09 04:47:24;;;;;;;38.15;24.77;;;;;;;12.66;100.00;101466.13;6108951;23;20450;-77
2023/05/09 04:49:49;;;;;;;32.40;22.23;;;;;;;12.71;100.00;101460.81;6131828;23;20121;-76
2023/05/09 04:52:14;;;;;;;34.20;23.83;;;;;;;12.73;100.00;101459.91;6107491;23;20020;-77
2023/05/09 04:54:40;;;;;;;35.65;23.38;;;;;;;12.75;100.00;101454.63;6129827;23;20008;-77
2023/05/09 04:57:05;;;;;;;32.95;23.10;;;;;;;12.76;100.00;101446.72;6108170;23;20020;-77
2023/05/09 04:59:31;;;;;;;30.08;21.40;;;;;;;12.80;100.00;101448.44;6156618;23;20009;-76
2023/05/09 05:01:57;;;;;;;32.45;22.70;;;;;;;12.85;100.00;101444.88;6156285;23;20012;-76
2023/05/09 05:04:22;;;;;;;29.83;21.08;;;;;;;12.89;100.00;101436.94;6154652;23;20008;-78
2023/05/09 05:06:48;;;;;;;28.33;20.52;;;;;;;12.93;100.00;101448.25;6107914;23;20009;-77
2023/05/09 05:09:13;;;;;;;27.08;20.77;;;;;;;12.95;100.00;101447.38;6156848;23;20015;-76
2023/05/09 05:11:39;;;;;;;29.08;21.27;;;;;;;12.99;100.00;101442.94;6129370;23;20317;-77
2023/05/09 05:14:04;;;;;;;28.55;20.20;;;;;;;13.04;100.00;101438.47;6130043;23;20020;-77
2023/05/09 05:16:29;;;;;;;27.00;20.38;;;;;;;13.07;100.00;101430.53;6106466;23;20063;-77
2023/05/09 05:18:55;;;;;;;29.63;20.73;;;;;;;13.08;100.00;101421.78;6106350;23;20013;-77
2023/05/09 05:21:20;;;;;;;28.77;20.67;;;;;;;13.11;100.00;101421.72;6107216;23;20013;-76
2023/05/09 05:23:46;;;;;;;26.70;20.42;;;;;;;13.10;100.00;101412.13;6105729;23;20013;-77
2023/05/09 05:26:11;;;;;;;29.85;21.88;;;;;;;13.14;100.00;101408.53;6129832;23;20325;-77
2023/05/09 05:28:37;;;;;;;24.88;19.88;;;;;;;13.15;100.00;101399.75;6131763;23;20089;-76
2023/05/09 05:31:02;;;;;;;29.10;21.17;;;;;;;13.18;100.00;101407.59;6106691;23;20074;-77
2023/05/09 05:33:27;;;;;;;27.67;21.30;;;;;;;13.21;100.00;101405.84;6155677;23;20025;-77
2023/05/09 05:35:53;;;;;;;25.80;20.27;;;;;;;13.20;100.00;101401.44;6106400;23;20113;-77
2023/05/09 05:38:18;;;;;;;27.95;21.20;;;;;;;13.22;100.00;101397.91;6107058;23;20013;-77
2023/05/09 05:40:44;;;;;;;28.02;20.83;;;;;;;13.25;100.00;101397.00;6109276;23;20013;-77
2023/05/09 05:43:09;;;;;;;25.70;20.52;;;;;;;13.31;99.66;101395.13;6108700;23;20325;-76
2023/05/09 05:45:34;;;;;;;25.98;19.52;;;;;;;13.37;99.39;101406.53;6156767;23;20018;-75
2023/05/09 05:48:01;;;;;;;26.48;20.00;;;;;;;13.43;98.88;101396.78;6128477;23;20456;-76
2023/05/09 05:50:27;;;;;;;25.75;19.35;;;;;;;13.47;98.07;101398.44;6080094;23;20009;-76
2023/05/09 05:52:53;;;;;;;27.23;19.98;;;;;;;13.55;98.23;101392.19;6078901;23;20444;-76
2023/05/09 05:55:18;;;;;;;25.77;20.25;;;;;;;13.60;97.67;101388.59;6127877;23;20006;-76
2023/05/09 05:57:45;;;;;;;24.95;19.30;;;;;;;13.64;96.76;101386.81;6128092;23;20075;-74
2023/05/09 06:00:13;;;;;;;24.52;19.70;;;;;;;13.69;96.54;101384.94;6104075;23;20455;-77
2023/05/09 06:02:42;;;;;;;24.02;20.20;;;;;;;13.75;96.55;101370.81;6103723;23;20092;-77
2023/05/09 06:05:08;;;;;;;27.65;19.42;;;;;;;13.81;95.24;101381.28;6126229;23;20009;-76
2023/05/09 06:07:33;;;;;;;22.92;19.15;;;;;;;13.87;95.14;101373.25;6079387;23;20033;-77
2023/05/09 06:09:58;;;;;;;23.35;19.20;;;;;;;13.94;93.98;101376.66;6128312;23;20347;-75
2023/05/09 06:12:24;;;;;;;23.52;19.60;;;;;;;14.06;95.87;101368.53;6080090;23;20013;-76
2023/05/09 06:14:49;;;;;;;25.77;19.60;;;;;;;14.18;94.74;101360.41;6103598;23;20016;-76
2023/05/09 06:17:15;;;;;;;26.42;20.67;;;;;;;14.30;94.54;101367.22;6079287;23;20099;-75
2023/05/09 06:19:40;;;;;;;23.35;18.52;;;;;;;14.38;91.11;101359.19;6079738;23;20017;-75
2023/05/09 06:22:05;;;;;;;28.55;20.80;;;;;;;14.53;93.96;101361.50;6102912;23;20024;-76
2023/05/09 06:24:33;;;;;;;25.90;19.20;;;;;;;14.54;91.58;101352.69;6079100;23;20336;-76
2023/05/09 06:26:59;;;;;;;25.55;18.90;;;;;;;14.55;90.12;101354.44;6101661;23;20523;-76
2023/05/09 06:29:24;;;;;;;24.42;17.92;;;;;;;14.60;89.68;101351.69;6078194;23;20025;-75
2023/05/09 06:31:50;;;;;;;24.20;18.52;;;;;;;14.67;90.61;101352.47;6078456;23;20076;-76
2023/05/09 06:34:15;;;;;;;22.42;18.48;;;;;;;14.72;91.09;101355.88;6095036;23;20060;-76
2023/05/09 06:36:40;;;;;;;22.63;18.73;;;;;;;14.68;88.74;101355.09;6076254;23;20013;-75
2023/05/09 06:39:06;;;;;;;22.67;18.38;;;;;;;14.68;89.32;101347.16;6151853;23;20020;-75
2023/05/09 06:41:31;;;;;;;23.95;18.90;;;;;;;14.70;90.38;101347.13;6100756;23;20013;-76
2023/05/09 06:44:01;;;;;;;24.75;18.15;;;;;;;14.72;90.63;101345.31;6128670;23;20010;-76
2023/05/09 06:46:27;;;;;;;20.50;17.30;;;;;;;14.65;88.96;101344.59;6100702;23;20020;-74
2023/05/09 06:48:53;;;;;;;23.90;17.40;;;;;;;14.63;88.62;101341.09;6141372;23;20017;-74
2023/05/09 06:51:18;;;;;;;22.98;18.25;;;;;;;14.61;89.06;101334.09;6131784;23;20047;-76
2023/05/09 06:53:44;;;;;;;21.63;16.73;;;;;;;14.61;89.03;101336.72;6104957;23;20091;-75
2023/05/09 06:56:09;;;;;;;20.52;16.73;;;;;;;14.66;89.58;101334.91;6131543;23;20405;-76
2023/05/09 06:58:35;;;;;;;23.48;17.90;;;;;;;14.66;89.01;101340.19;6106418;23;20459;-75
2023/05/09 07:01:01;;;;;;;22.48;17.63;;;;;;;14.73;90.30;101328.59;6155635;23;20013;-77
2023/05/09 07:03:26;;;;;;;22.25;17.25;;;;;;;14.75;89.48;101321.50;6156210;23;20458;-76
2023/05/09 07:05:51;;;;;;;24.35;17.63;;;;;;;14.80;89.65;101322.28;6131801;23;20411;-77
2023/05/09 07:08:17;;;;;;;20.02;16.38;;;;;;;14.82;88.85;101316.97;6131350;23;20017;-76
2023/05/09 07:10:43;;;;;;;19.15;16.02;;;;;;;14.93;90.90;101316.72;6109117;23;20009;-77
2023/05/09 07:13:12;;;;;;;18.98;16.55;;;;;;;14.98;89.58;101306.94;6131018;23;20012;-82
2023/05/09 07:15:38;;;;;;;20.33;15.90;;;;;;;15.06;88.52;101312.94;6133666;23;20016;-82
2023/05/09 07:18:03;;;;;;;21.17;14.85;;;;;;;15.13;88.43;101305.72;6134450;23;20410;-82
2023/05/09 07:20:29;;;;;;;20.90;15.35;;;;;;;15.17;87.53;101304.75;6156276;23;20000;-81
2023/05/09 07:22:54;;;;;;;19.67;15.25;;;;;;;15.21;87.90;101287.94;6132542;23;20001;-81
2023/05/09 07:25:20;;;;;;;20.45;14.82;;;;;;;15.27;86.90;101289.56;6107443;23;20088;-82
2023/05/09 07:27:45;;;;;;;18.00;14.43;;;;;;;15.28;86.03;101292.16;6158686;23;20017;-82
2023/05/09 07:30:11;;;;;;;19.10;14.10;;;;;;;15.31;86.10;101293.88;6131455;23;20019;-80
2023/05/09 07:32:37;;;;;;;15.85;14.07;;;;;;;15.28;86.05;101291.31;6109276;23;20064;-81
2023/05/09 07:35:02;;;;;;;18.00;14.45;;;;;;;15.29;86.76;101293.91;6134505;23;20382;-81
2023/05/09 07:37:28;;;;;;;18.35;14.10;;;;;;;15.33;87.47;101286.75;6107926;23;20020;-81
2023/05/09 07:39:54;;;;;;;18.98;13.68;;;;;;;15.30;86.15;101286.84;6109811;23;20380;-80
2023/05/09 07:42:20;;;;;;;19.25;14.23;;;;;;;15.28;86.07;101286.03;6110348;23;20009;-81
2023/05/09 07:44:45;;;;;;;17.92;13.70;;;;;;;15.32;87.72;101285.06;6158673;23;20023;-80
2023/05/09 07:47:10;;;;;;;17.55;13.50;;;;;;;15.30;86.49;101281.56;6133317;23;20428;-81
2023/05/09 07:49:36;;;;;;;17.95;12.98;;;;;;;15.28;85.91;101284.25;6105634;23;20021;-81
2023/05/09 07:52:01;;;;;;;15.23;12.40;;;;;;;15.28;87.22;101275.47;6128513;23;20009;-79
2023/05/09 07:54:27;;;;;;;15.57;12.57;;;;;;;15.27;87.82;101273.72;6132510;23;20025;-80
2023/05/09 07:56:53;;;;;;;14.00;12.35;;;;;;;15.30;87.42;101278.91;6108291;23;20366;-79
2023/05/09 07:59:19;;;;;;;12.82;10.95;;;;;;;15.29;85.76;101274.56;6107327;23;20019;-81
2023/05/09 08:01:44;;;;;;;14.48;11.00;;;;;;;15.31;85.74;101264.81;6106819;23;20499;-80
2023/05/09 08:04:10;;;;;;;13.98;10.30;;;;;;;15.30;86.02;101263.97;6132068;23;20313;-81
2023/05/09 08:06:35;;;;;;;15.23;10.48;;;;;;;15.22;84.33;101258.00;6107984;23;20024;-82
2023/05/09 08:09:01;;;;;;;11.80;9.23;;;;;;;15.31;86.00;101264.81;6157692;23;20008;-80
2023/05/09 08:11:27;;;;;;;13.32;9.98;;;;;;;15.31;85.13;101262.19;6156510;23;20005;-80
2023/05/09 08:13:52;;;;;;;11.60;9.45;;;;;;;15.34;84.94;101254.19;6133637;23;20005;-82
2023/05/09 08:16:18;;;;;;;11.90;9.05;;;;;;;15.32;83.94;101253.38;6109708;23;20446;-80
2023/05/09 08:18:44;;;;;;;13.00;9.18;;;;;;;15.35;84.06;101250.63;6132578;23;20119;-81
2023/05/09 08:21:09;;;;;;;11.80;8.18;;;;;;;15.37;84.38;101248.81;6133545;23;20036;-81
2023/05/09 08:23:34;;;;;;;9.77;7.70;;;;;;;15.46;85.89;101248.59;6133731;23;20044;-81
2023/05/09 08:26:00;;;;;;;9.77;7.95;;;;;;;15.50;85.62;101239.69;6134410;23;20025;-80
2023/05/09 08:28:27;;;;;;;11.43;7.32;;;;;;;15.49;84.09;101240.59;6109823;23;20009;-80
2023/05/09 08:30:56;;;;;;;8.75;7.13;;;;;;;15.53;86.32;101234.31;6110030;23;20019;-80
2023/05/09 08:33:22;;;;;;;10.27;7.97;;;;;;;15.58;85.21;101226.28;6133726;23;20080;-82
2023/05/09 08:35:55;;;;;;;9.98;7.72;;;;;;;15.52;84.41;101234.38;6158450;23;20008;-81
2023/05/09 08:38:21;;;;;;;8.85;7.18;;;;;;;15.46;83.94;101234.50;6158173;23;20083;-80
2023/05/09 08:40:46;;;;;;;9.52;7.68;;;;;;;15.46;85.05;101238.03;6133757;23;20012;-81
2023/05/09 08:43:14;;;;;;;8.90;8.00;;;;;;;15.44;84.91;101231.91;6134228;23;20009;-80
2023/05/09 08:45:48;;;;;;;10.18;8.60;;;;;;;15.52;85.67;101227.31;6158659;23;20009;-81
2023/05/09 08:48:18;;;;;;;13.32;8.23;;;;;;;15.47;85.10;101233.59;6158341;23;20017;-82
2023/05/09 08:50:43;;;;;;;11.37;8.77;;;;;;;15.39;86.21;101223.25;6132796;23;20039;-81
2023/05/09 08:53:10;;;;;;;9.68;8.10;;;;;;;15.31;86.12;101223.44;6157599;23;20444;-81
2023/05/09 08:55:36;;;;;;;9.73;8.38;;;;;;;15.29;87.04;101224.41;6133319;23;20092;-81
2023/05/09 08:58:03;;;;;;;9.70;8.52;;;;;;;15.35;87.92;101224.25;6157995;23;20001;-82
2023/05/09 09:00:28;;;;;;;11.18;8.60;;;;;;;15.25;86.82;101221.81;6158264;23;20340;-82
2023/05/09 09:02:57;;;;;;;12.30;8.85;;;;;;;15.12;87.38;101222.19;6158094;23;20005;-81
2023/05/09 09:05:25;;;;;;;10.85;8.68;;;;;;;15.07;88.05;101217.03;6156639;23;20040;-82
2023/05/09 09:07:51;;;;;;;11.05;9.82;;;;;;;15.10;89.29;101213.41;6156906;23;20005;-82
2023/05/09 09:10:19;;;;;;;13.45;9.55;;;;;;;15.07;89.52;101209.09;6158047;23;20160;-81
2023/05/09 09:12:45;;;;;;;11.07;9.23;;;;;;;15.10;90.13;101211.66;6109893;23;20019;-82
2023/05/09 09:15:16;;;;;;;11.27;10.02;;;;;;;15.21;90.38;101209.63;6108925;23;20352;-82
2023/05/09 09:17:46;;;;;;;11.02;8.80;;;;;;;15.08;89.34;101210.81;6158206;23;20015;-81
2023/05/09 09:20:15;;;;;;;10.50;8.07;;;;;;;14.98;88.68;101204.88;6157557;23;20001;-82
2023/05/09 09:22:42;;;;;;;8.95;7.22;;;;;;;14.93;88.85;101205.91;6157004;23;20033;-82
2023/05/09 09:25:10;;;;;;;9.45;7.47;;;;;;;14.93;88.34;101203.25;6132783;23;20009;-82
2023/05/09 09:27:36;;;;;;;10.02;6.75;;;;;;;14.94;89.61;101197.09;6133663;23;20359;-81
2023/05/09 09:30:09;;;;;;;9.93;7.50;;;;;;;14.86;90.13;101200.78;6133564;23;20016;-81
2023/05/09 09:32:35;;;;;;;9.25;7.35;;;;;;;14.83;90.91;101200.84;6157854;23;20008;-81
2023/05/09 09:35:08;;;;;;;7.43;6.43;;;;;;;14.87;89.88;101191.97;6133050;23;20011;-82
2023/05/09 09:37:34;;;;;;;9.15;5.28;;;;;;;14.79;88.85;101193.91;6133024;23;20009;-80
2023/05/09 09:40:00;;;;;;;6.10;4.20;;;;;;;14.70;86.94;101194.16;6133382;23;20147;-82
2023/05/09 09:42:26;;;;;;;8.27;4.07;;;;;;;14.64;87.87;101195.16;6158212;23;20005;-81
2023/05/09 09:45:24;;;;;;;8.05;4.90;;;;;;;14.71;89.04;101198.50;6108860;23;20013;-81
2023/05/09 09:47:49;;;;;;;7.57;4.90;;;;;;;14.65;89.87;101196.00;6054444;23;20339;-80
2023/05/09 09:50:17;;;;;;;6.88;4.93;;;;;;;14.65;90.61;101188.97;6107668;23;20100;-82
2023/05/09 09:52:43;;;;;;;6.38;4.70;;;;;;;14.60;89.97;101187.31;6155590;23;20005;-82
2023/05/09 09:55:08;;;;;;;8.88;5.45;;;;;;;14.54;91.14;101186.53;6156003;23;20025;-80
2023/05/09 09:57:35;;;;;;;7.13;4.90;;;;;;;14.48;91.04;101189.34;6133099;23;20013;-81
2023/05/09 10:00:02;;;;;;;8.00;4.32;;;;;;;14.41;91.54;101182.47;6133147;23;20032;-81
2023/05/09 10:02:27;;;;;;;6.25;4.40;;;;;;;14.35;91.82;101187.84;6184167;23;20008;-80
2023/05/09 10:04:53;;;;;;;6.10;3.92;;;;;;;14.28;92.87;101180.97;6108306;23;20013;-80
2023/05/09 10:07:22;;;;;;;5.10;3.55;;;;;;;14.13;91.17;101176.91;6106868;23;20412;-80
2023/05/09 10:09:48;;;;;;;5.65;3.83;;;;;;;14.01;91.02;101171.00;6157443;23;20012;-80
2023/05/09 10:12:18;;;;;;;7.25;4.38;;;;;;;13.97;92.97;101177.22;6132673;23;20084;-80
2023/05/09 10:14:44;;;;;;;5.93;3.40;;;;;;;13.91;92.71;101172.09;6133774;23;20036;-80
2023/05/09 10:17:13;;;;;;;4.50;3.85;;;;;;;13.95;94.93;101175.50;6157251;23;20076;-80
2023/05/09 10:19:43;;;;;;;5.10;4.07;;;;;;;13.91;95.28;101171.22;6155660;23;20059;-80
2023/05/09 10:22:11;;;;;;;5.63;4.20;;;;;;;13.88;96.10;101171.25;6156217;23;20009;-80
2023/05/09 10:25:02;;;;;;;5.18;4.45;;;;;;;13.88;96.93;101174.78;6156602;23;20301;-79
2023/05/09 10:27:31;;;;;;;6.00;5.28;;;;;;;13.86;98.00;101169.56;6158485;23;20012;-80
2023/05/09 10:30:03;;;;;;;6.95;5.90;;;;;;;13.86;99.00;101168.66;6159399;23;20024;-80
2023/05/09 10:32:48;;;;;;;9.82;6.32;;;;;;;13.86;99.63;101156.38;6155549;23;20131;-81
2023/05/09 10:35:15;;;;;;;7.75;6.10;;;;;;;13.79;99.55;101152.13;6157861;23;20063;-81
2023/05/09 10:37:42;;;;;;;7.68;6.00;;;;;;;13.76;98.18;101156.59;6133328;23;20010;-81
2023/05/09 10:42:52;;;;;;;9.00;6.10;;;;;;;13.61;99.92;101153.34;6187276;22;20023;-72
2023/05/09 10:45:22;;;;;;;8.07;5.93;;;;;;;13.56;99.76;101149.97;6129596;23;20006;-69
2023/05/09 10:47:49;;;;;;;7.40;6.17;;;;;;;13.62;100.00;101148.94;6104586;23;20338;-70
2023/05/09 10:50:16;;;;;;;8.50;5.90;;;;;;;13.60;100.00;101146.34;6128776;23;20001;-69
2023/05/09 10:53:03;;;;;;;10.27;6.57;;;;;;;13.59;100.00;101136.72;6104266;23;20005;-70
2023/05/09 10:55:54;;;;;;;8.77;5.80;;;;;;;13.52;100.00;101137.75;6129359;23;20340;-69
2023/05/09 10:58:25;;;;;;;;;;;;;;;13.48;100.00;101134.28;6129995;23;20097;-69
2023/05/09 11:00:54;;;;;;;6.18;4.97;;;;;;;13.29;100.00;101131.13;6129801;23;19904;-69
2023/05/09 11:03:19;;;;;;;9.38;5.60;;;;;;;13.27;100.00;101126.75;6129274;23;20009;-69
2023/05/09 11:05:49;;;;;;;8.18;5.53;;;;;;;13.24;100.00;101129.47;6079358;23;20013;-69
2023/05/09 11:08:24;;;;;;;8.27;6.22;;;;;;;13.24;100.00;101121.56;6105732;23;20013;-69
2023/05/09 11:10:50;;;;;;;8.88;5.90;;;;;;;13.23;100.00;101122.44;6129730;23;20410;-69